createdAt,value
2022-10-28T00:00:08.797Z,14.10
2022-10-28T00:01:42.167Z,14.10
2022-10-28T00:03:16.967Z,14.10
2022-10-28T00:04:50.146Z,14.10
2022-10-28T00:06:26.140Z,14.10
2022-10-28T00:07:59.308Z,14.10
2022-10-28T00:09:31.829Z,14.10
2022-10-28T00:11:07.752Z,14.10
2022-10-28T00:12:40.928Z,14.10
2022-10-28T00:14:15.179Z,14.10
2022-10-28T00:15:48.776Z,14.10
2022-10-28T00:17:21.918Z,14.10
2022-10-28T00:18:56.939Z,14.10
2022-10-28T00:20:32.424Z,14.10
2022-10-28T00:22:05.742Z,14.10
2022-10-28T00:23:38.419Z,14.10
2022-10-28T00:25:11.856Z,14.10
2022-10-28T00:26:45.932Z,14.10
2022-10-28T00:28:18.472Z,14.10
2022-10-28T00:29:51.746Z,14.10
2022-10-28T00:31:29.407Z,14.10
2022-10-28T00:33:01.538Z,14.00
2022-10-28T00:34:34.916Z,14.00
2022-10-28T00:36:14.131Z,14.00
2022-10-28T00:37:47.332Z,14.00
2022-10-28T00:39:23.502Z,14.00
2022-10-28T00:40:57.542Z,14.00
2022-10-28T00:42:30.856Z,14.00
2022-10-28T00:44:56.505Z,13.90
2022-10-28T00:46:40.480Z,14.00
2022-10-28T00:48:13.797Z,13.90
2022-10-28T00:49:50.197Z,13.90
2022-10-28T00:51:26.311Z,13.90
2022-10-28T00:53:12.150Z,13.90
2022-10-28T00:54:46.378Z,13.90
2022-10-28T00:56:22.054Z,13.90
2022-10-28T00:57:57.739Z,13.90
2022-10-28T00:59:36.140Z,13.80
2022-10-28T01:01:11.409Z,13.80
2022-10-28T01:02:48.971Z,13.80
2022-10-28T01:04:22.611Z,13.80
2022-10-28T01:05:57.083Z,13.80
2022-10-28T01:07:30.833Z,13.80
2022-10-28T01:09:05.117Z,13.80
2022-10-28T01:11:08.096Z,13.80
2022-10-28T01:12:58.369Z,13.80
2022-10-28T01:15:00.510Z,13.80
2022-10-28T01:16:57.959Z,13.80
2022-10-28T01:18:43.312Z,13.80
2022-10-28T01:21:12.158Z,13.80
2022-10-28T01:22:55.164Z,13.80
2022-10-28T01:24:53.380Z,13.80
2022-10-28T01:27:16.168Z,13.70
2022-10-28T01:29:32.698Z,13.70
2022-10-28T01:31:28.161Z,13.80
2022-10-28T01:33:10.597Z,13.70
2022-10-28T01:34:58.132Z,13.70
2022-10-28T01:36:41.765Z,13.70
2022-10-28T01:38:32.047Z,13.70
2022-10-28T01:40:12.314Z,13.70
2022-10-28T01:41:56.149Z,13.70
2022-10-28T01:43:37.160Z,13.70
2022-10-28T01:45:19.078Z,13.70
2022-10-28T01:47:03.919Z,13.70
2022-10-28T01:48:44.481Z,13.70
2022-10-28T01:50:26.206Z,13.70
2022-10-28T01:52:05.190Z,13.70
2022-10-28T01:53:42.446Z,13.70
2022-10-28T01:55:23.723Z,13.70
2022-10-28T01:57:00.344Z,13.70
2022-10-28T01:58:34.919Z,13.70
2022-10-28T02:00:09.920Z,13.70
2022-10-28T02:01:46.438Z,13.70
2022-10-28T02:03:21.906Z,13.80
2022-10-28T02:05:07.299Z,13.70
2022-10-28T02:06:44.962Z,13.70
2022-10-28T02:08:51.298Z,13.70
2022-10-28T02:10:34.079Z,13.70
2022-10-28T02:12:23.034Z,13.70
2022-10-28T02:14:08.284Z,13.70
2022-10-28T02:15:49.922Z,13.70
2022-10-28T02:17:33.615Z,13.70
2022-10-28T02:19:16.781Z,13.70
2022-10-28T02:20:56.214Z,13.70
2022-10-28T02:22:41.876Z,13.70
2022-10-28T02:24:22.040Z,13.70
2022-10-28T02:26:01.675Z,13.70
2022-10-28T02:27:45.571Z,13.70
2022-10-28T02:29:31.044Z,13.70
2022-10-28T02:31:10.541Z,13.70
2022-10-28T02:32:49.867Z,13.70
2022-10-28T02:34:32.054Z,13.70
2022-10-28T02:36:10.145Z,13.70
2022-10-28T02:37:46.078Z,13.80
2022-10-28T02:39:25.043Z,13.70
2022-10-28T02:41:04.655Z,13.80
2022-10-28T02:42:42.098Z,13.80
2022-10-28T02:44:19.883Z,13.80
2022-10-28T02:45:58.720Z,13.80
2022-10-28T02:47:38.187Z,13.80
2022-10-28T02:49:15.641Z,13.80
2022-10-28T02:50:57.773Z,13.80
2022-10-28T02:52:34.598Z,13.80
2022-10-28T02:54:13.185Z,13.80
2022-10-28T02:55:52.469Z,13.80
2022-10-28T02:57:28.618Z,13.80
2022-10-28T02:59:02.048Z,13.80
2022-10-28T03:00:35.256Z,13.80
2022-10-28T03:02:09.489Z,13.80
2022-10-28T03:03:43.344Z,13.80
2022-10-28T03:05:16.725Z,13.80
2022-10-28T03:06:51.233Z,13.80
2022-10-28T03:08:25.277Z,13.80
2022-10-28T03:09:58.510Z,13.90
2022-10-28T03:11:31.745Z,13.80
2022-10-28T03:13:04.002Z,13.80
2022-10-28T03:14:37.383Z,13.80
2022-10-28T03:16:10.826Z,13.80
2022-10-28T03:17:44.126Z,13.80
2022-10-28T03:19:17.395Z,13.90
2022-10-28T03:20:52.432Z,13.80
2022-10-28T03:22:28.824Z,13.80
2022-10-28T03:24:01.156Z,13.90
2022-10-28T03:25:34.349Z,13.90
2022-10-28T03:27:07.835Z,13.90
2022-10-28T03:28:40.104Z,13.90
2022-10-28T03:30:14.491Z,13.90
2022-10-28T03:31:47.862Z,13.90
2022-10-28T03:33:20.230Z,13.90
2022-10-28T03:34:53.498Z,13.90
2022-10-28T03:36:26.731Z,13.90
2022-10-28T03:38:00.359Z,13.90
2022-10-28T03:39:33.844Z,13.90
2022-10-28T03:41:07.396Z,13.90
2022-10-28T03:42:41.645Z,13.90
2022-10-28T03:44:14.903Z,13.90
2022-10-28T03:45:49.211Z,13.90
2022-10-28T03:47:22.371Z,13.90
2022-10-28T03:48:55.630Z,13.90
2022-10-28T03:50:28.867Z,13.90
2022-10-28T03:52:02.122Z,13.90
2022-10-28T03:53:36.822Z,13.90
2022-10-28T03:55:09.490Z,13.90
2022-10-28T03:56:42.652Z,13.90
2022-10-28T03:58:15.911Z,13.90
2022-10-28T03:59:49.101Z,13.90
2022-10-28T04:01:22.650Z,13.80
2022-10-28T04:02:56.636Z,13.80
2022-10-28T04:04:30.899Z,13.80
2022-10-28T04:06:04.520Z,13.80
2022-10-28T04:07:36.706Z,13.80
2022-10-28T04:09:11.281Z,13.80
2022-10-28T04:10:47.475Z,13.80
2022-10-28T04:12:21.242Z,13.80
2022-10-28T04:13:54.472Z,13.70
2022-10-28T04:15:27.662Z,13.70
2022-10-28T04:17:00.853Z,13.70
2022-10-28T04:18:35.339Z,13.70
2022-10-28T04:20:10.066Z,13.70
2022-10-28T04:21:43.544Z,13.70
2022-10-28T04:23:19.235Z,13.70
2022-10-28T04:24:54.659Z,13.70
2022-10-28T04:26:28.002Z,13.60
2022-10-28T04:28:01.246Z,13.60
2022-10-28T04:29:34.663Z,13.60
2022-10-28T04:31:08.063Z,13.60
2022-10-28T04:32:42.597Z,13.60
2022-10-28T04:34:15.960Z,13.50
2022-10-28T04:35:49.565Z,13.50
2022-10-28T04:37:25.891Z,13.50
2022-10-28T04:38:59.892Z,13.50
2022-10-28T04:40:34.375Z,13.50
2022-10-28T04:42:07.679Z,13.50
2022-10-28T04:43:41.008Z,13.40
2022-10-28T04:45:13.250Z,13.40
2022-10-28T04:46:46.528Z,13.40
2022-10-28T04:48:19.732Z,13.40
2022-10-28T04:49:52.682Z,13.40
2022-10-28T04:51:26.077Z,13.30
2022-10-28T04:52:59.315Z,13.30
2022-10-28T04:54:32.537Z,13.30
2022-10-28T04:56:08.005Z,13.30
2022-10-28T04:57:41.097Z,13.30
2022-10-28T04:59:14.587Z,13.30
2022-10-28T05:00:47.682Z,13.30
2022-10-28T05:02:23.334Z,13.20
2022-10-28T05:03:56.729Z,13.20
2022-10-28T05:05:29.979Z,13.20
2022-10-28T05:07:03.288Z,13.30
2022-10-28T05:08:36.542Z,13.20
2022-10-28T05:10:11.966Z,13.20
2022-10-28T05:11:46.623Z,13.20
2022-10-28T05:13:20.917Z,13.10
2022-10-28T05:14:54.115Z,13.20
2022-10-28T05:16:27.445Z,13.10
2022-10-28T05:18:00.558Z,13.10
2022-10-28T05:19:33.834Z,13.10
2022-10-28T05:21:07.433Z,13.00
2022-10-28T05:22:46.982Z,13.00
2022-10-28T05:24:20.170Z,13.00
2022-10-28T05:25:53.401Z,13.00
2022-10-28T05:27:26.947Z,13.00
2022-10-28T05:29:00.138Z,13.00
2022-10-28T05:30:33.434Z,13.00
2022-10-28T05:32:07.556Z,13.00
2022-10-28T05:33:42.240Z,13.00
2022-10-28T05:35:15.367Z,13.00
2022-10-28T05:36:50.703Z,12.90
2022-10-28T05:38:23.894Z,12.90
2022-10-28T05:39:57.092Z,12.90
2022-10-28T05:41:33.039Z,12.90
2022-10-28T05:43:11.389Z,12.90
2022-10-28T05:44:44.851Z,12.90
2022-10-28T05:46:18.009Z,12.90
2022-10-28T05:47:51.385Z,12.90
2022-10-28T05:49:24.802Z,12.90
2022-10-28T05:50:58.162Z,12.90
2022-10-28T05:52:31.449Z,12.80
2022-10-28T05:54:05.353Z,12.80
2022-10-28T05:55:38.630Z,12.90
2022-10-28T05:57:11.847Z,12.80
2022-10-28T05:58:47.495Z,12.80
2022-10-28T06:00:24.050Z,12.80
2022-10-28T06:01:57.637Z,12.80
2022-10-28T06:03:31.363Z,12.80
2022-10-28T06:05:08.049Z,12.80
2022-10-28T06:06:41.438Z,12.80
2022-10-28T06:08:15.693Z,12.80
2022-10-28T06:09:50.632Z,12.70
2022-10-28T06:11:22.150Z,12.70
2022-10-28T06:12:55.819Z,12.70
2022-10-28T06:14:30.657Z,12.70
2022-10-28T06:16:04.582Z,12.70
2022-10-28T06:17:37.872Z,12.70
2022-10-28T06:19:11.236Z,12.70
2022-10-28T06:20:44.456Z,12.70
2022-10-28T06:22:18.922Z,12.70
2022-10-28T06:23:52.999Z,12.70
2022-10-28T06:25:27.176Z,12.70
2022-10-28T06:27:00.425Z,12.70
2022-10-28T06:28:33.918Z,12.60
2022-10-28T06:30:10.358Z,12.60
2022-10-28T06:31:44.006Z,12.60
2022-10-28T06:33:17.478Z,12.60
2022-10-28T06:34:50.850Z,12.70
2022-10-28T06:36:24.147Z,12.60
2022-10-28T06:37:57.767Z,12.60
2022-10-28T06:39:31.015Z,12.60
2022-10-28T06:41:04.757Z,12.60
2022-10-28T06:42:38.015Z,12.60
2022-10-28T06:44:11.317Z,12.60
2022-10-28T06:45:46.833Z,12.70
2022-10-28T06:47:21.994Z,12.60
2022-10-28T06:48:57.269Z,12.60
2022-10-28T06:50:33.590Z,12.60
2022-10-28T06:52:06.814Z,12.60
2022-10-28T06:53:40.253Z,12.60
2022-10-28T06:55:13.452Z,12.60
2022-10-28T06:56:48.528Z,12.60
2022-10-28T06:58:22.056Z,12.60
2022-10-28T06:59:55.784Z,12.60
2022-10-28T07:01:30.719Z,12.60
2022-10-28T07:03:03.945Z,12.60
2022-10-28T07:04:37.541Z,12.70
2022-10-28T07:06:11.410Z,12.70
2022-10-28T07:07:44.769Z,12.70
2022-10-28T07:09:18.176Z,12.70
2022-10-28T07:10:56.241Z,12.70
2022-10-28T07:12:29.490Z,12.70
2022-10-28T07:14:02.926Z,12.70
2022-10-28T07:15:36.240Z,12.70
2022-10-28T07:17:10.701Z,12.70
2022-10-28T07:18:43.927Z,12.70
2022-10-28T07:20:17.283Z,12.70
2022-10-28T07:21:50.558Z,12.80
2022-10-28T07:23:24.565Z,12.80
2022-10-28T07:24:57.788Z,12.80
2022-10-28T07:26:30.950Z,12.80
2022-10-28T07:28:04.700Z,12.80
2022-10-28T07:29:37.911Z,12.80
2022-10-28T07:32:50.846Z,12.90
2022-10-28T07:34:27.031Z,12.90
2022-10-28T07:36:03.921Z,12.90
2022-10-28T07:37:39.321Z,13.00
2022-10-28T07:39:12.812Z,13.00
2022-10-28T07:40:46.360Z,13.00
2022-10-28T07:42:19.548Z,13.00
2022-10-28T07:43:52.934Z,13.00
2022-10-28T07:45:26.391Z,13.10
2022-10-28T07:46:59.612Z,13.10
2022-10-28T07:48:35.004Z,13.10
2022-10-28T07:50:09.736Z,13.20
2022-10-28T07:51:42.963Z,13.20
2022-10-28T07:54:54.631Z,13.30
2022-10-28T07:56:27.938Z,13.30
2022-10-28T07:58:01.219Z,13.30
2022-10-28T07:59:34.368Z,13.40
2022-10-28T08:01:10.616Z,13.40
2022-10-28T08:02:43.944Z,13.50
2022-10-28T08:04:18.494Z,13.50
2022-10-28T08:05:53.493Z,13.50
2022-10-28T08:07:33.735Z,13.60
2022-10-28T08:09:09.672Z,13.60
2022-10-28T08:10:42.861Z,13.70
2022-10-28T08:12:16.873Z,13.70
2022-10-28T08:13:50.258Z,13.70
2022-10-28T08:15:23.975Z,13.80
2022-10-28T08:16:57.323Z,13.80
2022-10-28T08:18:30.523Z,13.90
2022-10-28T08:20:06.293Z,13.90
2022-10-28T08:21:39.462Z,14.00
2022-10-28T08:23:12.729Z,14.00
2022-10-28T08:24:46.006Z,14.00
2022-10-28T08:26:19.299Z,14.10
2022-10-28T08:27:52.610Z,14.10
2022-10-28T08:29:29.166Z,14.20
2022-10-28T08:31:09.452Z,14.20
2022-10-28T08:32:43.087Z,14.30
2022-10-28T08:34:16.728Z,14.30
2022-10-28T08:35:56.682Z,14.40
2022-10-28T08:37:30.041Z,14.40
2022-10-28T08:39:03.901Z,14.40
2022-10-28T08:40:54.354Z,14.50
2022-10-28T08:42:42.064Z,14.60
2022-10-28T08:45:01.554Z,14.60
2022-10-28T08:46:57.435Z,14.70
2022-10-28T08:48:34.789Z,14.80
2022-10-28T08:50:16.440Z,14.80
2022-10-28T08:51:58.372Z,14.90
2022-10-28T08:53:40.249Z,15.00
2022-10-28T08:55:18.999Z,15.00
2022-10-28T08:56:56.060Z,15.10
2022-10-28T08:58:35.400Z,15.10
2022-10-28T09:00:19.662Z,15.20
2022-10-28T09:02:00.900Z,15.20
2022-10-28T09:03:40.861Z,15.30
2022-10-28T09:05:23.454Z,15.40
2022-10-28T09:06:58.138Z,15.50
2022-10-28T09:08:37.663Z,15.50
2022-10-28T09:10:16.455Z,15.60
2022-10-28T09:12:06.990Z,15.70
2022-10-28T09:14:11.942Z,15.70
2022-10-28T09:15:59.346Z,15.80
2022-10-28T09:17:44.137Z,15.90
2022-10-28T09:19:38.037Z,15.90
2022-10-28T09:21:19.286Z,16.00
2022-10-28T09:22:59.513Z,16.10
2022-10-28T09:24:50.782Z,16.10
2022-10-28T09:26:42.378Z,16.20
2022-10-28T09:28:39.316Z,16.30
2022-10-28T09:30:31.753Z,16.40
2022-10-28T09:32:15.583Z,16.50
2022-10-28T09:34:03.910Z,16.60
2022-10-28T09:35:43.854Z,16.70
2022-10-28T09:37:23.807Z,16.80
2022-10-28T09:39:03.552Z,16.90
2022-10-28T09:40:42.643Z,17.00
2022-10-28T09:42:24.325Z,17.10
2022-10-28T09:44:07.829Z,17.20
2022-10-28T09:45:48.137Z,17.30
2022-10-28T09:47:25.257Z,17.40
2022-10-28T09:49:05.746Z,17.50
2022-10-28T09:50:39.388Z,17.70
2022-10-28T09:52:19.957Z,17.80
2022-10-28T09:53:59.472Z,17.90
2022-10-28T09:55:33.309Z,18.00
2022-10-28T09:57:07.632Z,18.10
2022-10-28T09:58:46.825Z,18.10
2022-10-28T10:00:20.867Z,18.20
2022-10-28T10:01:54.352Z,18.30
2022-10-28T10:03:27.749Z,18.40
2022-10-28T10:05:03.580Z,18.50
2022-10-28T10:06:42.640Z,18.60
2022-10-28T10:08:19.541Z,18.70
2022-10-28T10:09:54.234Z,18.80
2022-10-28T10:11:34.393Z,18.90
2022-10-28T10:13:10.157Z,19.00
2022-10-28T10:14:49.292Z,19.10
2022-10-28T10:16:32.188Z,19.20
2022-10-28T10:18:08.342Z,19.20
2022-10-28T10:20:07.496Z,19.30
2022-10-28T10:21:47.505Z,19.40
2022-10-28T10:23:30.389Z,19.40
2022-10-28T10:25:24.154Z,19.50
2022-10-28T10:27:00.527Z,19.60
2022-10-28T10:28:42.776Z,19.70
2022-10-28T10:30:23.977Z,19.70
2022-10-28T10:32:17.432Z,19.80
2022-10-28T10:33:54.488Z,19.80
2022-10-28T10:35:32.088Z,19.90
2022-10-28T10:37:06.006Z,19.90
2022-10-28T10:38:48.438Z,20.00
2022-10-28T10:40:30.986Z,20.00
2022-10-28T10:42:15.547Z,20.10
2022-10-28T10:43:48.739Z,20.10
2022-10-28T10:45:26.128Z,20.20
2022-10-28T10:47:22.579Z,20.30
2022-10-28T10:49:14.230Z,20.30
2022-10-28T10:50:50.530Z,20.40
2022-10-28T10:52:26.209Z,20.40
2022-10-28T10:54:01.049Z,20.50
2022-10-28T10:55:37.879Z,20.50
2022-10-28T10:57:23.153Z,20.60
2022-10-28T10:59:02.778Z,20.70
2022-10-28T11:00:45.525Z,20.70
2022-10-28T11:02:27.409Z,20.80
2022-10-28T11:04:03.030Z,20.80
2022-10-28T11:05:38.503Z,20.90
2022-10-28T11:07:17.361Z,20.90
2022-10-28T11:08:56.907Z,21.00
2022-10-28T11:10:35.406Z,21.00
2022-10-28T11:12:25.340Z,21.00
2022-10-28T11:14:06.998Z,21.00
2022-10-28T11:15:40.288Z,21.10
2022-10-28T11:17:27.664Z,21.10
2022-10-28T11:19:21.457Z,21.10
2022-10-28T11:21:05.693Z,21.20
2022-10-28T11:22:48.519Z,21.20
2022-10-28T11:24:49.439Z,21.20
2022-10-28T11:26:25.673Z,21.30
2022-10-28T11:28:19.179Z,21.30
2022-10-28T11:29:52.703Z,21.30
2022-10-28T11:31:56.649Z,21.40
2022-10-28T11:33:44.473Z,21.40
2022-10-28T11:35:52.576Z,21.40
2022-10-28T11:37:48.670Z,21.40
2022-10-28T11:39:28.399Z,21.40
2022-10-28T11:41:25.383Z,21.50
2022-10-28T11:43:20.581Z,21.50
2022-10-28T11:44:58.869Z,21.50
2022-10-28T11:46:51.597Z,21.50
2022-10-28T11:48:57.002Z,21.50
2022-10-28T11:50:49.144Z,21.60
2022-10-28T11:52:44.279Z,21.60
2022-10-28T11:54:37.818Z,21.60
2022-10-28T11:56:26.912Z,21.60
2022-10-28T11:58:20.243Z,21.60
2022-10-28T12:00:24.840Z,21.70
2022-10-28T12:02:16.148Z,21.80
2022-10-28T12:04:13.259Z,21.80
2022-10-28T12:05:56.840Z,21.80
2022-10-28T12:08:03.915Z,21.80
2022-10-28T12:10:00.108Z,21.90
2022-10-28T12:11:49.519Z,21.90
2022-10-28T12:13:38.499Z,21.90
2022-10-28T12:15:26.669Z,22.00
2022-10-28T12:17:14.533Z,22.00
2022-10-28T12:18:56.280Z,22.10
2022-10-28T12:20:36.492Z,22.10
2022-10-28T12:22:19.462Z,22.20
2022-10-28T12:23:56.390Z,22.20
2022-10-28T12:25:34.905Z,22.20
2022-10-28T12:27:18.261Z,22.20
2022-10-28T12:28:59.048Z,22.20
2022-10-28T12:30:36.825Z,22.30
2022-10-28T12:32:15.033Z,22.30
2022-10-28T12:33:53.363Z,22.30
2022-10-28T12:35:33.800Z,22.40
2022-10-28T12:37:12.545Z,22.40
2022-10-28T12:38:55.063Z,22.40
2022-10-28T12:40:36.661Z,22.50
2022-10-28T12:42:17.498Z,22.50
2022-10-28T12:44:01.239Z,22.50
2022-10-28T12:45:34.933Z,22.50
2022-10-28T12:47:23.439Z,22.50
2022-10-28T12:49:04.576Z,22.60
2022-10-28T12:50:49.986Z,22.60
2022-10-28T12:52:34.050Z,22.60
2022-10-28T12:54:19.692Z,22.60
2022-10-28T12:55:59.844Z,22.60
2022-10-28T12:57:35.486Z,22.70
2022-10-28T12:59:19.009Z,22.70
2022-10-28T13:00:58.365Z,22.70
2022-10-28T13:02:40.349Z,22.70
2022-10-28T13:04:14.219Z,22.70
2022-10-28T13:05:57.769Z,22.70
2022-10-28T13:07:58.522Z,22.70
2022-10-28T13:09:47.592Z,22.70
2022-10-28T13:12:44.459Z,22.70
2022-10-28T13:15:12.464Z,22.70
2022-10-28T13:17:13.127Z,22.70
2022-10-28T13:19:21.100Z,22.70
2022-10-28T13:21:08.196Z,22.70
2022-10-28T13:23:11.318Z,22.70
2022-10-28T13:24:57.360Z,22.70
2022-10-28T13:26:34.446Z,22.70
2022-10-28T13:28:14.420Z,22.70
2022-10-28T13:29:53.907Z,22.70
2022-10-28T13:31:40.300Z,22.60
2022-10-28T13:33:25.272Z,22.60
2022-10-28T13:34:59.870Z,22.60
2022-10-28T13:36:36.555Z,22.60
2022-10-28T13:38:14.164Z,22.60
2022-10-28T13:39:48.550Z,22.60
2022-10-28T13:41:44.817Z,22.60
2022-10-28T13:43:42.819Z,22.60
2022-10-28T13:45:49.016Z,22.60
2022-10-28T13:47:32.226Z,22.50
2022-10-28T13:49:24.833Z,22.50
2022-10-28T13:51:32.010Z,22.50
2022-10-28T13:53:52.831Z,22.50
2022-10-28T13:55:41.492Z,22.50
2022-10-28T13:57:26.931Z,22.50
2022-10-28T13:59:03.074Z,22.50
2022-10-28T14:00:39.218Z,22.40
2022-10-28T14:02:35.137Z,22.40
2022-10-28T14:04:25.833Z,22.40
2022-10-28T14:06:01.635Z,22.40
2022-10-28T14:07:39.180Z,22.40
2022-10-28T14:09:23.119Z,22.40
2022-10-28T14:11:04.818Z,22.40
2022-10-28T14:12:44.238Z,22.40
2022-10-28T14:14:20.595Z,22.40
2022-10-28T14:16:29.934Z,22.40
2022-10-28T14:18:22.418Z,22.30
2022-10-28T14:20:03.458Z,22.30
2022-10-28T14:21:44.888Z,22.30
2022-10-28T14:24:16.363Z,22.30
2022-10-28T14:26:06.093Z,22.30
2022-10-28T14:27:44.341Z,22.30
2022-10-28T14:29:30.058Z,22.30
2022-10-28T14:31:35.867Z,22.30
2022-10-28T14:33:28.217Z,22.30
2022-10-28T14:35:06.400Z,22.30
2022-10-28T14:36:54.135Z,22.30
2022-10-28T14:38:58.364Z,22.20
2022-10-28T14:40:36.918Z,22.20
2022-10-28T14:42:42.200Z,22.20
2022-10-28T14:44:41.079Z,22.20
2022-10-28T14:46:35.288Z,22.20
2022-10-28T14:48:49.371Z,22.10
2022-10-28T14:50:25.648Z,22.10
2022-10-28T14:52:08.475Z,22.10
2022-10-28T14:53:44.232Z,22.10
2022-10-28T14:55:26.979Z,22.10
2022-10-28T14:57:01.351Z,22.00
2022-10-28T14:58:41.375Z,22.00
2022-10-28T15:00:20.487Z,22.00
2022-10-28T15:02:05.437Z,21.90
2022-10-28T15:03:40.102Z,21.90
2022-10-28T15:05:32.204Z,21.80
2022-10-28T15:07:05.667Z,21.80
2022-10-28T15:08:39.060Z,21.80
2022-10-28T15:10:18.886Z,21.80
2022-10-28T15:11:57.093Z,21.70
2022-10-28T15:13:30.405Z,21.70
2022-10-28T15:15:04.540Z,21.60
2022-10-28T15:16:46.243Z,21.60
2022-10-28T15:18:24.468Z,21.50
2022-10-28T15:20:01.129Z,21.50
2022-10-28T15:21:34.771Z,21.50
2022-10-28T15:23:21.023Z,21.40
2022-10-28T15:25:00.983Z,21.40
2022-10-28T15:26:34.396Z,21.30
2022-10-28T15:28:10.716Z,21.30
2022-10-28T15:29:44.481Z,21.20
2022-10-28T15:31:18.282Z,21.20
2022-10-28T15:32:52.501Z,21.10
2022-10-28T15:34:24.691Z,21.10
2022-10-28T15:36:15.261Z,21.00
2022-10-28T15:37:52.504Z,20.90
2022-10-28T15:39:25.905Z,20.90
2022-10-28T15:40:59.919Z,20.90
2022-10-28T15:42:42.140Z,20.80
2022-10-28T15:44:42.521Z,20.70
2022-10-28T15:46:17.841Z,20.70
2022-10-28T15:47:51.775Z,20.60
2022-10-28T15:49:38.262Z,20.60
2022-10-28T15:51:16.850Z,20.50
2022-10-28T15:52:56.961Z,20.50
2022-10-28T15:54:30.616Z,20.40
2022-10-28T15:56:20.601Z,20.30
2022-10-28T15:57:56.293Z,20.30
2022-10-28T15:59:29.486Z,20.20
2022-10-28T16:01:02.885Z,20.10
2022-10-28T16:02:42.142Z,20.10
2022-10-28T16:04:45.761Z,20.00
2022-10-28T16:06:27.440Z,19.90
2022-10-28T16:08:04.833Z,19.90
2022-10-28T16:09:46.448Z,19.80
2022-10-28T16:11:21.148Z,19.70
2022-10-28T16:12:54.508Z,19.70
2022-10-28T16:14:37.611Z,19.60
2022-10-28T16:16:14.712Z,19.50
2022-10-28T16:17:47.976Z,19.50
2022-10-28T16:19:29.632Z,19.40
2022-10-28T16:21:06.144Z,19.40
2022-10-28T16:22:41.837Z,19.30
2022-10-28T16:24:16.295Z,19.20
2022-10-28T16:25:49.597Z,19.10
2022-10-28T16:27:25.256Z,19.10
2022-10-28T16:28:58.760Z,19.00
2022-10-28T16:30:31.899Z,19.00
2022-10-28T16:32:06.885Z,18.90
2022-10-28T16:33:40.206Z,18.80
2022-10-28T16:35:17.696Z,18.80
2022-10-28T16:36:50.849Z,18.70
2022-10-28T16:38:24.647Z,18.70
2022-10-28T16:39:59.438Z,18.60
2022-10-28T16:41:32.826Z,18.60
2022-10-28T16:43:05.296Z,18.50
2022-10-28T16:44:38.634Z,18.50
2022-10-28T16:46:14.134Z,18.40
2022-10-28T16:47:47.365Z,18.30
2022-10-28T16:49:20.442Z,18.30
2022-10-28T16:50:56.780Z,18.20
2022-10-28T16:52:31.925Z,18.20
2022-10-28T16:54:05.272Z,18.10
2022-10-28T16:55:39.905Z,18.10
2022-10-28T16:57:13.221Z,18.00
2022-10-28T16:58:46.759Z,18.00
2022-10-28T17:00:20.712Z,17.90
2022-10-28T17:01:53.975Z,17.90
2022-10-28T17:03:27.395Z,17.80
2022-10-28T17:05:01.035Z,17.80
2022-10-28T17:06:34.674Z,17.80
2022-10-28T17:08:09.989Z,17.70
2022-10-28T17:09:44.276Z,17.70
2022-10-28T17:11:18.837Z,17.60
2022-10-28T17:12:53.170Z,17.60
2022-10-28T17:14:26.987Z,17.50
2022-10-28T17:16:00.162Z,17.50
2022-10-28T17:17:33.369Z,17.40
2022-10-28T17:19:06.570Z,17.40
2022-10-28T17:20:39.982Z,17.30
2022-10-28T17:22:12.813Z,17.30
2022-10-28T17:23:45.985Z,17.30
2022-10-28T17:25:19.843Z,17.20
2022-10-28T17:26:54.412Z,17.10
2022-10-28T17:28:27.784Z,17.10
2022-10-28T17:30:01.688Z,17.10
2022-10-28T17:31:35.266Z,17.10
2022-10-28T17:33:09.947Z,17.00
2022-10-28T17:34:43.199Z,17.00
2022-10-28T17:36:16.360Z,17.00
2022-10-28T17:37:50.384Z,16.90
2022-10-28T17:39:26.231Z,16.80
2022-10-28T17:40:59.789Z,16.80
2022-10-28T17:42:34.375Z,16.80
2022-10-28T17:44:07.499Z,16.70
2022-10-28T17:45:41.200Z,16.70
2022-10-28T17:47:14.847Z,16.70
2022-10-28T17:48:48.457Z,16.70
2022-10-28T17:50:21.546Z,16.60
2022-10-28T17:51:54.815Z,16.60
2022-10-28T17:53:28.008Z,16.60
2022-10-28T17:55:01.121Z,16.50
2022-10-28T17:56:35.080Z,16.50
2022-10-28T17:58:09.980Z,16.40
2022-10-28T17:59:43.262Z,16.40
2022-10-28T18:01:16.563Z,16.30
2022-10-28T18:02:50.092Z,16.30
2022-10-28T18:04:26.128Z,16.30
2022-10-28T18:06:03.411Z,16.30
2022-10-28T18:07:36.666Z,16.20
2022-10-28T18:09:12.604Z,16.20
2022-10-28T18:10:52.736Z,16.10
2022-10-28T18:12:25.991Z,16.10
2022-10-28T18:14:00.514Z,16.10
2022-10-28T18:15:37.888Z,16.00
2022-10-28T18:17:14.588Z,16.00
2022-10-28T18:18:48.456Z,16.00
2022-10-28T18:20:21.682Z,15.90
2022-10-28T18:21:54.917Z,15.90
2022-10-28T18:23:28.816Z,15.90
2022-10-28T18:25:01.992Z,15.90
2022-10-28T18:26:37.671Z,15.90
2022-10-28T18:28:10.884Z,15.90
2022-10-28T18:29:45.362Z,15.80
2022-10-28T18:31:21.005Z,15.80
2022-10-28T18:32:54.368Z,15.80
2022-10-28T18:34:28.338Z,15.70
2022-10-28T18:36:01.938Z,15.70
2022-10-28T18:37:35.141Z,15.70
2022-10-28T18:39:09.411Z,15.70
2022-10-28T18:40:48.007Z,15.70
2022-10-28T18:42:22.080Z,15.60
2022-10-28T18:43:56.685Z,15.60
2022-10-28T18:45:32.403Z,15.60
2022-10-28T18:47:05.690Z,15.60
2022-10-28T18:48:39.760Z,15.60
2022-10-28T18:50:13.211Z,15.50
2022-10-28T18:51:46.451Z,15.50
2022-10-28T18:53:18.897Z,15.50
2022-10-28T18:54:52.968Z,15.50
2022-10-28T18:56:29.567Z,15.40
2022-10-28T18:58:02.768Z,15.40
2022-10-28T18:59:43.250Z,15.30
2022-10-28T19:01:29.916Z,15.30
2022-10-28T19:03:03.799Z,15.30
2022-10-28T19:04:37.057Z,15.30
2022-10-28T19:06:13.539Z,15.30
2022-10-28T19:07:47.086Z,15.20
2022-10-28T19:09:20.483Z,15.20
2022-10-28T19:10:56.593Z,15.20
2022-10-28T19:12:29.738Z,15.20
2022-10-28T19:14:06.847Z,15.10
2022-10-28T19:15:47.251Z,15.10
2022-10-28T19:17:21.829Z,15.10
2022-10-28T19:18:57.000Z,15.10
2022-10-28T19:20:30.712Z,15.10
2022-10-28T19:22:04.859Z,15.00
2022-10-28T19:23:39.127Z,15.00
2022-10-28T19:25:12.434Z,15.00
2022-10-28T19:26:45.519Z,14.90
2022-10-28T19:28:18.710Z,14.90
2022-10-28T19:29:51.805Z,14.90
2022-10-28T19:31:27.923Z,14.90
2022-10-28T19:33:02.613Z,14.90
2022-10-28T19:34:35.848Z,14.80
2022-10-28T19:36:15.174Z,14.80
2022-10-28T19:37:48.594Z,14.80
2022-10-28T19:39:22.268Z,14.80
2022-10-28T19:40:55.425Z,14.70
2022-10-28T19:42:28.524Z,14.70
2022-10-28T19:44:04.586Z,14.70
2022-10-28T19:45:37.738Z,14.60
2022-10-28T19:47:10.847Z,14.70
2022-10-28T19:48:48.657Z,14.60
2022-10-28T19:50:21.959Z,14.60
2022-10-28T19:51:55.203Z,14.60
2022-10-28T19:53:28.580Z,14.50
2022-10-28T19:55:01.746Z,14.50
2022-10-28T19:56:36.535Z,14.50
2022-10-28T19:58:08.725Z,14.50
2022-10-28T19:59:41.822Z,14.50
2022-10-28T20:01:15.360Z,14.50
2022-10-28T20:02:49.076Z,14.40
2022-10-28T20:04:23.539Z,14.40
2022-10-28T20:06:02.387Z,14.40
2022-10-28T20:07:35.828Z,14.30
2022-10-28T20:09:09.751Z,14.30
2022-10-28T20:10:42.975Z,14.30
2022-10-28T20:12:16.137Z,14.30
2022-10-28T20:13:53.794Z,14.30
2022-10-28T20:15:26.961Z,14.30
2022-10-28T20:17:06.596Z,14.20
2022-10-28T20:18:40.848Z,14.20
2022-10-28T20:20:15.834Z,14.20
2022-10-28T20:21:50.714Z,14.20
2022-10-28T20:23:23.763Z,14.20
2022-10-28T20:24:56.867Z,14.20
2022-10-28T20:26:32.944Z,14.10
2022-10-28T20:28:05.198Z,14.10
2022-10-28T20:29:38.351Z,14.10
2022-10-28T20:31:14.093Z,14.10
2022-10-28T20:32:49.694Z,14.10
2022-10-28T20:34:25.284Z,14.10
2022-10-28T20:36:00.151Z,14.00
2022-10-28T20:37:33.391Z,14.00
2022-10-28T20:39:11.510Z,14.00
2022-10-28T20:40:49.391Z,14.00
2022-10-28T20:42:22.651Z,13.90
2022-10-28T20:43:56.335Z,14.00
2022-10-28T20:45:29.741Z,13.90
2022-10-28T20:47:02.890Z,13.90
2022-10-28T20:48:36.265Z,13.90
2022-10-28T20:50:10.412Z,13.90
2022-10-28T20:51:45.028Z,13.90
2022-10-28T20:53:17.513Z,13.90
2022-10-28T20:54:50.706Z,13.90
2022-10-28T20:56:27.061Z,13.80
2022-10-28T20:58:00.349Z,13.90
2022-10-28T20:59:33.445Z,13.80
2022-10-28T21:01:12.500Z,13.80
2022-10-28T21:02:46.013Z,13.80
2022-10-28T21:04:19.213Z,13.80
2022-10-28T21:05:52.341Z,13.80
2022-10-28T21:07:26.889Z,13.70
2022-10-28T21:09:00.404Z,13.70
2022-10-28T21:10:34.368Z,13.70
2022-10-28T21:12:08.273Z,13.70
2022-10-28T21:13:42.366Z,13.70